createdAt,value
2022-09-15T00:02:08.278Z,120.75
2022-09-15T00:07:10.992Z,122.53
2022-09-15T00:12:13.023Z,127.22
2022-09-15T00:17:14.840Z,118.47
2022-09-15T00:22:16.542Z,103.57
2022-09-15T00:27:18.241Z,135.40
2022-09-15T00:32:19.949Z,106.03
2022-09-15T00:37:21.911Z,112.60
2022-09-15T00:42:23.893Z,108.22
2022-09-15T00:47:31.144Z,99.53
2022-09-15T00:52:56.913Z,98.18
2022-09-15T00:58:08.195Z,93.45
2022-09-15T01:03:10.097Z,93.25
2022-09-15T01:08:19.261Z,94.53
2022-09-15T01:13:20.922Z,96.07
2022-09-15T01:18:27.980Z,84.97
2022-09-15T01:24:06.832Z,85.70
2022-09-15T01:29:42.162Z,79.55
2022-09-15T01:34:58.656Z,89.03
2022-09-15T01:40:01.897Z,78.93
2022-09-15T01:45:12.199Z,81.13
2022-09-15T01:50:18.822Z,83.10
2022-09-15T01:55:25.241Z,86.05
2022-09-15T02:00:27.097Z,77.03
2022-09-15T02:05:41.623Z,85.57
2022-09-15T02:10:53.194Z,79.03
2022-09-15T02:15:58.790Z,83.57
2022-09-15T02:21:36.254Z,80.70
2022-09-15T02:26:40.185Z,85.10
2022-09-15T02:31:44.403Z,97.32
2022-09-15T02:36:48.236Z,96.57
2022-09-15T02:41:49.879Z,85.97
2022-09-15T02:46:52.299Z,78.20
2022-09-15T02:51:54.032Z,84.43
2022-09-15T02:56:55.628Z,86.35
2022-09-15T03:01:57.755Z,77.10
2022-09-15T03:06:59.565Z,91.22
2022-09-15T03:12:01.329Z,80.13
2022-09-15T03:17:03.560Z,84.90
2022-09-15T03:22:05.216Z,73.55
2022-09-15T03:27:07.121Z,86.00
2022-09-15T03:32:08.799Z,72.68
2022-09-15T03:37:10.561Z,67.85
2022-09-15T03:42:12.264Z,69.70
2022-09-15T03:47:14.193Z,80.60
2022-09-15T03:52:15.872Z,69.65
2022-09-15T03:57:17.609Z,76.88
2022-09-15T04:02:19.346Z,70.68
2022-09-15T04:07:21.116Z,72.20
2022-09-15T04:12:22.798Z,77.20
2022-09-15T04:17:24.663Z,78.55
2022-09-15T04:22:26.676Z,70.05
2022-09-15T04:27:28.974Z,68.65
2022-09-15T04:32:30.704Z,69.05
2022-09-15T04:37:33.432Z,72.28
2022-09-15T04:42:35.120Z,94.38
2022-09-15T04:47:36.840Z,76.22
2022-09-15T04:52:38.867Z,69.90
2022-09-15T04:57:40.571Z,70.63
2022-09-15T05:02:42.598Z,78.13
2022-09-15T05:07:44.257Z,75.63
2022-09-15T05:12:46.502Z,68.28
2022-09-15T05:17:49.746Z,77.28
2022-09-15T05:22:51.427Z,71.88
2022-09-15T05:27:53.074Z,83.53
2022-09-15T05:32:54.740Z,79.45
2022-09-15T05:37:57.330Z,80.55
2022-09-15T05:42:59.043Z,69.05
2022-09-15T05:48:00.656Z,92.55
2022-09-15T05:53:02.704Z,74.57
2022-09-15T05:58:04.463Z,66.50
2022-09-15T06:03:06.524Z,79.97
2022-09-15T06:08:08.519Z,65.13
2022-09-15T06:13:10.219Z,67.30
2022-09-15T06:18:11.847Z,69.15
2022-09-15T06:23:13.624Z,68.90
2022-09-15T06:28:15.286Z,72.65
2022-09-15T06:33:17.038Z,69.05
2022-09-15T06:38:18.806Z,63.33
2022-09-15T06:43:20.550Z,66.80
2022-09-15T06:48:24.959Z,65.10
2022-09-15T06:53:34.705Z,63.67
2022-09-15T06:58:38.140Z,59.58
2022-09-15T07:03:42.671Z,63.70
2022-09-15T07:08:46.524Z,58.05
2022-09-15T07:13:49.163Z,58.30
2022-09-15T07:18:51.452Z,64.85
2022-09-15T07:23:56.111Z,55.35
2022-09-15T07:29:03.480Z,58.17
2022-09-15T07:34:05.812Z,56.55
2022-09-15T07:39:07.587Z,49.88
2022-09-15T07:44:11.868Z,48.85
2022-09-15T07:49:13.552Z,50.53
2022-09-15T07:54:19.376Z,46.72
2022-09-15T07:59:23.220Z,51.53
2022-09-15T08:04:25.092Z,50.80
2022-09-15T08:09:26.768Z,47.25
2022-09-15T08:14:29.869Z,50.28
2022-09-15T08:19:33.321Z,50.28
2022-09-15T08:24:35.049Z,49.00
2022-09-15T08:29:36.894Z,54.50
2022-09-15T08:34:38.607Z,50.42
2022-09-15T08:39:41.121Z,49.70
2022-09-15T08:45:00.426Z,52.97
2022-09-15T08:50:31.020Z,47.10
2022-09-15T08:55:45.047Z,50.70
2022-09-15T09:00:51.680Z,49.03
2022-09-15T09:06:02.278Z,45.35
2022-09-15T09:11:19.070Z,46.15
2022-09-15T09:16:43.029Z,41.08
2022-09-15T09:21:53.225Z,44.57
2022-09-15T09:26:55.797Z,40.70
2022-09-15T09:31:58.484Z,38.80
2022-09-15T09:37:10.380Z,39.13
2022-09-15T09:42:16.870Z,35.67
2022-09-15T09:47:19.149Z,29.80
2022-09-15T09:52:34.244Z,28.05
2022-09-15T09:57:40.566Z,25.63
2022-09-15T10:02:47.448Z,20.50
2022-09-15T10:07:49.313Z,15.73
2022-09-15T10:12:56.367Z,16.90
2022-09-15T10:17:58.300Z,12.93
2022-09-15T10:23:17.314Z,19.30
2022-09-15T10:28:23.001Z,22.27
2022-09-15T10:33:27.136Z,18.95
2022-09-15T10:38:40.809Z,20.75
2022-09-15T10:44:07.777Z,11.88
2022-09-15T10:49:43.451Z,14.98
2022-09-15T10:54:57.581Z,11.18
2022-09-15T11:00:02.169Z,12.20
2022-09-15T11:05:25.144Z,7.72
2022-09-15T11:10:35.279Z,12.70
2022-09-15T11:15:58.270Z,8.95
2022-09-15T11:21:06.908Z,9.32
2022-09-15T11:26:14.487Z,8.10
2022-09-15T11:31:44.686Z,7.72
2022-09-15T11:36:59.213Z,7.68
2022-09-15T11:42:13.358Z,10.18
2022-09-15T11:47:36.419Z,10.52
2022-09-15T11:52:51.068Z,7.95
2022-09-15T12:03:10.984Z,5.50
2022-09-15T12:08:37.407Z,6.13
2022-09-15T12:13:40.908Z,5.07
2022-09-15T12:18:50.979Z,9.10
2022-09-15T12:24:17.240Z,4.00
2022-09-15T12:29:21.924Z,4.85
2022-09-15T12:34:29.221Z,7.40
2022-09-15T12:39:40.725Z,6.90
2022-09-15T12:44:52.689Z,6.80
2022-09-15T12:50:03.745Z,7.13
2022-09-15T12:55:05.761Z,6.30
2022-09-15T13:00:32.580Z,6.95
2022-09-15T13:05:42.993Z,4.65
2022-09-15T13:11:03.388Z,6.00
2022-09-15T13:16:10.482Z,5.28
2022-09-15T13:21:17.423Z,3.45
2022-09-15T13:26:24.541Z,6.18
2022-09-15T13:31:53.237Z,6.65
2022-09-15T13:42:51.748Z,6.53
2022-09-15T13:48:24.169Z,5.32
2022-09-15T13:53:44.750Z,5.97
2022-09-15T13:58:58.589Z,9.20
2022-09-15T14:04:11.253Z,4.97
2022-09-15T14:09:33.136Z,5.22
2022-09-15T14:14:40.035Z,10.68
2022-09-15T14:19:42.666Z,5.53
2022-09-15T14:24:44.991Z,5.25
2022-09-15T14:29:50.200Z,10.60
2022-09-15T14:34:53.144Z,8.32
2022-09-15T14:39:57.395Z,4.55
2022-09-15T14:45:56.728Z,4.38
2022-09-15T14:51:07.121Z,5.78
2022-09-15T14:56:15.593Z,3.58
2022-09-15T15:01:30.414Z,6.90
2022-09-15T15:06:55.813Z,5.95
2022-09-15T15:12:02.084Z,4.95
2022-09-15T15:17:08.567Z,4.50
2022-09-15T15:22:13.542Z,5.18
2022-09-15T15:27:33.568Z,5.20
2022-09-15T15:32:35.281Z,7.53
2022-09-15T15:37:36.987Z,4.07
2022-09-15T15:42:50.497Z,6.60
2022-09-15T15:47:52.622Z,7.55
2022-09-15T15:52:54.724Z,4.32
2022-09-15T15:57:56.762Z,6.97
2022-09-15T16:02:58.400Z,5.13
2022-09-15T16:08:04.487Z,8.13
2022-09-15T16:13:06.305Z,5.88
2022-09-15T16:18:08.060Z,6.43
2022-09-15T16:23:22.332Z,6.07
2022-09-15T16:28:24.030Z,8.60
2022-09-15T16:33:26.464Z,4.28
2022-09-15T16:38:28.486Z,3.85
2022-09-15T16:43:30.657Z,3.47
2022-09-15T16:48:32.495Z,5.43
2022-09-15T16:53:34.179Z,6.35
2022-09-15T16:58:35.861Z,4.38
2022-09-15T17:03:37.534Z,6.18
2022-09-15T17:08:39.444Z,4.05
2022-09-15T17:13:41.475Z,6.53
2022-09-15T17:18:43.317Z,4.78
2022-09-15T17:23:46.821Z,5.78
2022-09-15T17:28:48.868Z,5.10
2022-09-15T17:33:51.172Z,2.88
2022-09-15T17:38:52.945Z,6.80
2022-09-15T17:43:54.817Z,7.13
2022-09-15T17:48:56.575Z,4.22
2022-09-15T17:53:58.215Z,2.80
2022-09-15T17:58:59.967Z,5.78
2022-09-15T18:04:01.936Z,4.45
2022-09-15T18:09:03.603Z,2.72
2022-09-15T18:14:05.323Z,3.55
2022-09-15T18:19:07.666Z,4.90
2022-09-15T18:24:13.745Z,7.22
2022-09-15T18:29:15.372Z,4.03
2022-09-15T18:34:17.072Z,5.93
2022-09-15T18:39:19.067Z,5.70
2022-09-15T18:44:21.521Z,4.28
2022-09-15T18:49:23.278Z,7.32
2022-09-15T18:54:24.998Z,4.55
2022-09-15T18:59:26.737Z,4.95
2022-09-15T19:04:31.870Z,8.55
2022-09-15T19:09:35.510Z,4.65
2022-09-15T19:14:37.245Z,6.72
2022-09-15T19:19:39.140Z,6.22
2022-09-15T19:24:40.923Z,6.10
2022-09-15T19:29:42.691Z,6.00
2022-09-15T19:34:45.700Z,7.35
2022-09-15T19:39:48.583Z,7.70
2022-09-15T19:44:50.413Z,6.60
2022-09-15T19:49:52.351Z,6.00
2022-09-15T19:54:54.150Z,6.72
2022-09-15T19:59:55.946Z,7.57
2022-09-15T20:04:57.621Z,8.82
2022-09-15T20:09:59.309Z,6.63
2022-09-15T20:15:00.996Z,5.53
2022-09-15T20:20:03.043Z,5.30
2022-09-15T20:25:05.072Z,5.60
2022-09-15T20:30:07.408Z,8.02
2022-09-15T20:35:09.204Z,7.43
2022-09-15T20:40:10.907Z,6.70
2022-09-15T20:45:12.694Z,3.60
2022-09-15T20:50:14.500Z,3.95
2022-09-15T20:55:16.249Z,3.30
2022-09-15T21:00:18.755Z,6.72
2022-09-15T21:05:20.412Z,2.80
2022-09-15T21:10:24.089Z,6.15
2022-09-15T21:15:27.112Z,5.43
2022-09-15T21:20:29.612Z,4.88
2022-09-15T21:25:31.407Z,4.35
2022-09-15T21:30:33.113Z,6.15
2022-09-15T21:35:34.857Z,6.05
2022-09-15T21:40:36.812Z,4.68
2022-09-15T21:45:38.572Z,6.03
2022-09-15T21:50:53.883Z,6.30
2022-09-15T21:55:56.659Z,10.77
2022-09-15T22:00:58.349Z,4.53
2022-09-15T22:06:00.113Z,5.38
2022-09-15T22:11:01.941Z,8.15
2022-09-15T22:16:06.106Z,4.65
2022-09-15T22:21:23.622Z,3.70
2022-09-15T22:26:27.816Z,7.00
2022-09-15T22:31:30.110Z,6.35
2022-09-15T22:36:32.420Z,4.57
2022-09-15T22:41:36.544Z,5.68
2022-09-15T22:46:38.240Z,5.05
2022-09-15T22:51:39.945Z,7.40
2022-09-15T22:56:41.641Z,4.68
2022-09-15T23:01:43.627Z,6.55
2022-09-15T23:06:45.377Z,6.55
2022-09-15T23:11:47.017Z,5.60
2022-09-15T23:16:48.734Z,4.32
2022-09-15T23:21:50.468Z,4.50
2022-09-15T23:26:52.130Z,8.43
2022-09-15T23:31:53.974Z,4.20
2022-09-15T23:36:55.875Z,6.45
2022-09-15T23:41:57.694Z,3.67
2022-09-15T23:46:59.438Z,4.88
2022-09-15T23:52:01.301Z,5.55
2022-09-15T23:57:03.168Z,5.45
